CCM68ZK LFPO-LFKJ
Flight info
| Callsign | CCM68ZK |
|---|---|
| Flight time | 1h 13m |
| Altitude | 37000 |
| Route | LATRA DCT LAMUT DCT UTUVA DCT TITVA DCT NOQAS DCT OTROT DCT RETNO DCT KOLON DCT OMARD M623 VAREK |
| Aircraft | A320/M-SDE3FGHIRWY/LB1 |
Departure
| Time | 2026-04-21 20:11 |
|---|---|
| Airport | Paris-Orly Airport (LFPO) |
Arrival
| Time | 2026-04-21 21:24 |
|---|---|
| Airport | Ajaccio Napoléon Bonaparte airport (LFKJ) |
| Time | Latitude | Longitude | Altitude | Speed | Heading |
|---|---|---|---|---|---|
| 2026-04-21 19:38 | 48.72582 | 2.35879 | 289 ft | 0 kts | 26° |
| 2026-04-21 20:02 | 48.72572 | 2.35871 | 289 ft | 4 kts | 26° |
| 2026-04-21 20:02 | 48.72547 | 2.35854 | 289 ft | 4 kts | 22° |
| 2026-04-21 20:03 | 48.72522 | 2.35840 | 291 ft | 4 kts | 16° |
| 2026-04-21 20:03 | 48.72496 | 2.35833 | 291 ft | 4 kts | 356° |
| 2026-04-21 20:03 | 48.72481 | 2.35837 | 289 ft | 4 kts | 315° |
| 2026-04-21 20:03 | 48.72476 | 2.35846 | 289 ft | 0 kts | 276° |
| 2026-04-21 20:06 | 48.72477 | 2.35827 | 290 ft | 6 kts | 276° |
| 2026-04-21 20:06 | 48.72481 | 2.35775 | 285 ft | 5 kts | 275° |
| 2026-04-21 20:06 | 48.72476 | 2.35728 | 307 ft | 6 kts | 253° |
| 2026-04-21 20:07 | 48.72460 | 2.35655 | 301 ft | 8 kts | 250° |
| 2026-04-21 20:07 | 48.72425 | 2.35616 | 299 ft | 6 kts | 190° |
| 2026-04-21 20:07 | 48.72391 | 2.35626 | 299 ft | 4 kts | 163° |
| 2026-04-21 20:07 | 48.72367 | 2.35637 | 297 ft | 3 kts | 163° |
| 2026-04-21 20:08 | 48.72337 | 2.35644 | 300 ft | 7 kts | 181° |
| 2026-04-21 20:08 | 48.72285 | 2.35615 | 302 ft | 8 kts | 202° |
| 2026-04-21 20:08 | 48.72238 | 2.35601 | 297 ft | 6 kts | 179° |
| 2026-04-21 20:08 | 48.72200 | 2.35612 | 298 ft | 5 kts | 167° |
| 2026-04-21 20:09 | 48.72170 | 2.35624 | 299 ft | 4 kts | 166° |
| 2026-04-21 20:09 | 48.72136 | 2.35636 | 301 ft | 8 kts | 166° |
| 2026-04-21 20:09 | 48.72072 | 2.35677 | 302 ft | 10 kts | 141° |
| 2026-04-21 20:09 | 48.72030 | 2.35754 | 301 ft | 10 kts | 127° |
| 2026-04-21 20:10 | 48.71994 | 2.35846 | 303 ft | 11 kts | 118° |
| 2026-04-21 20:10 | 48.71963 | 2.35951 | 301 ft | 11 kts | 97° |
| 2026-04-21 20:10 | 48.71986 | 2.36101 | 303 ft | 24 kts | 75° |
| 2026-04-21 20:10 | 48.72098 | 2.36700 | 302 ft | 92 kts | 74° |
| 2026-04-21 20:11 | 48.72323 | 2.37912 | 303 ft | 144 kts | 75° |
| 2026-04-21 20:11 | 48.72620 | 2.39490 | 714 ft | 157 kts | 74° |
| 2026-04-21 20:11 | 48.72927 | 2.41081 | 1457 ft | 157 kts | 73° |
| 2026-04-21 20:11 | 48.73242 | 2.42662 | 2206 ft | 160 kts | 74° |
| 2026-04-21 20:12 | 48.73571 | 2.44400 | 2484 ft | 183 kts | 75° |
| 2026-04-21 20:12 | 48.73924 | 2.46389 | 2826 ft | 208 kts | 77° |
| 2026-04-21 20:12 | 48.74131 | 2.48668 | 3298 ft | 228 kts | 85° |
| 2026-04-21 20:12 | 48.74230 | 2.51100 | 4092 ft | 233 kts | 87° |
| 2026-04-21 20:13 | 48.74302 | 2.53580 | 4981 ft | 237 kts | 87° |
| 2026-04-21 20:13 | 48.74306 | 2.56086 | 5845 ft | 241 kts | 98° |
| 2026-04-21 20:13 | 48.73542 | 2.58335 | 6610 ft | 253 kts | 133° |
| 2026-04-21 20:13 | 48.71976 | 2.59742 | 7356 ft | 268 kts | 154° |
| 2026-04-21 20:14 | 48.70166 | 2.60584 | 8092 ft | 277 kts | 162° |
| 2026-04-21 20:14 | 48.68265 | 2.61270 | 8841 ft | 284 kts | 164° |
| 2026-04-21 20:14 | 48.66312 | 2.61927 | 9571 ft | 292 kts | 171° |
| 2026-04-21 20:14 | 48.64254 | 2.61925 | 10273 ft | 300 kts | 187° |
| 2026-04-21 20:15 | 48.62215 | 2.61152 | 10966 ft | 305 kts | 202° |
| 2026-04-21 20:15 | 48.60264 | 2.59741 | 11413 ft | 320 kts | 207° |
| 2026-04-21 20:15 | 48.58202 | 2.58167 | 11602 ft | 344 kts | 207° |
| 2026-04-21 20:15 | 48.55998 | 2.56475 | 11746 ft | 366 kts | 207° |
| 2026-04-21 20:16 | 48.53691 | 2.54694 | 11870 ft | 387 kts | 208° |
| 2026-04-21 20:16 | 48.51240 | 2.52798 | 12006 ft | 406 kts | 207° |
| 2026-04-21 20:16 | 48.48664 | 2.50917 | 12357 ft | 415 kts | 201° |
| 2026-04-21 20:16 | 48.45833 | 2.49952 | 12860 ft | 421 kts | 184° |
| 2026-04-21 20:17 | 48.42891 | 2.49967 | 13402 ft | 424 kts | 178° |
| 2026-04-21 20:17 | 48.39926 | 2.50098 | 13927 ft | 429 kts | 179° |
| 2026-04-21 20:17 | 48.36922 | 2.50252 | 14324 ft | 435 kts | 179° |
| 2026-04-21 20:17 | 48.33877 | 2.50412 | 14757 ft | 439 kts | 180° |
| 2026-04-21 20:18 | 48.31848 | 2.50518 | 15044 ft | 441 kts | 180° |
| 2026-04-21 20:18 | 48.27718 | 2.50726 | 15645 ft | 446 kts | 180° |
| 2026-04-21 20:18 | 48.24604 | 2.50880 | 16088 ft | 450 kts | 181° |
| 2026-04-21 20:18 | 48.21463 | 2.51030 | 16515 ft | 453 kts | 181° |
| 2026-04-21 20:19 | 48.18296 | 2.51179 | 16912 ft | 457 kts | 181° |
| 2026-04-21 20:19 | 48.15098 | 2.51332 | 17327 ft | 461 kts | 182° |
| 2026-04-21 20:19 | 48.11880 | 2.51492 | 17746 ft | 465 kts | 182° |
| 2026-04-21 20:19 | 48.08638 | 2.51928 | 18147 ft | 472 kts | 174° |
| 2026-04-21 20:20 | 48.05462 | 2.53070 | 18523 ft | 479 kts | 165° |
| 2026-04-21 20:20 | 48.02284 | 2.54644 | 18856 ft | 482 kts | 164° |
| 2026-04-21 20:20 | 47.99088 | 2.56229 | 19211 ft | 486 kts | 165° |
| 2026-04-21 20:20 | 47.95870 | 2.57817 | 19537 ft | 488 kts | 165° |
| 2026-04-21 20:21 | 47.92633 | 2.59408 | 19868 ft | 491 kts | 165° |
| 2026-04-21 20:21 | 47.89381 | 2.61003 | 20208 ft | 493 kts | 165° |
| 2026-04-21 20:21 | 47.86114 | 2.62602 | 20534 ft | 496 kts | 165° |
| 2026-04-21 20:21 | 47.82829 | 2.64209 | 20845 ft | 498 kts | 165° |
| 2026-04-21 20:22 | 47.79523 | 2.65826 | 21154 ft | 501 kts | 165° |
| 2026-04-21 20:22 | 47.72872 | 2.69078 | 21759 ft | 505 kts | 165° |
| 2026-04-21 20:22 | 47.69526 | 2.70698 | 22057 ft | 507 kts | 165° |
| 2026-04-21 20:23 | 47.66153 | 2.72262 | 22341 ft | 509 kts | 166° |
| 2026-04-21 20:23 | 47.62754 | 2.73774 | 22629 ft | 510 kts | 167° |
| 2026-04-21 20:23 | 47.59336 | 2.75250 | 22901 ft | 512 kts | 167° |
| 2026-04-21 20:23 | 47.55899 | 2.76716 | 23159 ft | 515 kts | 167° |
| 2026-04-21 20:24 | 47.52451 | 2.78169 | 23463 ft | 515 kts | 169° |
| 2026-04-21 20:24 | 47.48936 | 2.78911 | 23775 ft | 508 kts | 181° |
| 2026-04-21 20:24 | 47.45410 | 2.79142 | 24125 ft | 506 kts | 182° |
| 2026-04-21 20:24 | 47.41894 | 2.79353 | 24469 ft | 505 kts | 182° |
| 2026-04-21 20:25 | 47.38382 | 2.79569 | 24821 ft | 504 kts | 182° |
| 2026-04-21 20:25 | 47.34881 | 2.79791 | 25154 ft | 503 kts | 182° |
| 2026-04-21 20:25 | 47.31401 | 2.80011 | 25558 ft | 501 kts | 182° |
| 2026-04-21 20:25 | 47.27909 | 2.80235 | 25958 ft | 499 kts | 182° |
| 2026-04-21 20:26 | 47.24439 | 2.80465 | 26339 ft | 498 kts | 182° |
| 2026-04-21 20:26 | 47.20980 | 2.80702 | 26727 ft | 497 kts | 182° |
| 2026-04-21 20:26 | 47.17534 | 2.80948 | 27121 ft | 495 kts | 182° |
| 2026-04-21 20:26 | 47.14090 | 2.81200 | 27504 ft | 494 kts | 182° |
| 2026-04-21 20:27 | 47.10666 | 2.81458 | 27931 ft | 492 kts | 182° |
| 2026-04-21 20:27 | 47.07249 | 2.81725 | 28337 ft | 491 kts | 182° |
| 2026-04-21 20:27 | 47.03839 | 2.81999 | 28746 ft | 490 kts | 182° |
| 2026-04-21 20:27 | 47.00441 | 2.82282 | 29152 ft | 488 kts | 182° |
| 2026-04-21 20:28 | 46.97052 | 2.82571 | 29574 ft | 487 kts | 182° |
| 2026-04-21 20:28 | 46.93668 | 2.82867 | 29975 ft | 486 kts | 182° |
| 2026-04-21 20:28 | 46.90291 | 2.83166 | 30320 ft | 485 kts | 182° |
| 2026-04-21 20:28 | 46.86970 | 2.83466 | 30641 ft | 485 kts | 182° |
| 2026-04-21 20:29 | 46.83611 | 2.83778 | 30980 ft | 484 kts | 182° |
| 2026-04-21 20:29 | 46.80254 | 2.84096 | 31319 ft | 483 kts | 182° |
| 2026-04-21 20:29 | 46.76907 | 2.84421 | 31655 ft | 482 kts | 182° |
| 2026-04-21 20:29 | 46.73576 | 2.85227 | 31961 ft | 493 kts | 168° |
| 2026-04-21 20:30 | 46.70411 | 2.87263 | 32228 ft | 503 kts | 152° |
| 2026-04-21 20:30 | 46.67452 | 2.90004 | 32486 ft | 505 kts | 150° |
| 2026-04-21 20:30 | 46.64511 | 2.92798 | 32789 ft | 505 kts | 150° |
| 2026-04-21 20:30 | 46.61585 | 2.95609 | 33100 ft | 504 kts | 150° |
| 2026-04-21 20:31 | 46.58658 | 2.98428 | 33423 ft | 504 kts | 150° |
| 2026-04-21 20:31 | 46.55731 | 3.01231 | 33739 ft | 503 kts | 150° |
| 2026-04-21 20:31 | 46.52807 | 3.04015 | 34018 ft | 503 kts | 151° |
| 2026-04-21 20:31 | 46.49883 | 3.06785 | 34338 ft | 501 kts | 151° |
| 2026-04-21 20:32 | 46.47005 | 3.09496 | 34662 ft | 499 kts | 151° |
| 2026-04-21 20:32 | 46.44097 | 3.12226 | 34959 ft | 497 kts | 151° |
| 2026-04-21 20:32 | 46.41197 | 3.14946 | 35264 ft | 495 kts | 151° |
| 2026-04-21 20:32 | 46.38303 | 3.17657 | 35540 ft | 494 kts | 150° |
| 2026-04-21 20:33 | 46.35421 | 3.20361 | 35815 ft | 493 kts | 150° |
| 2026-04-21 20:33 | 46.32543 | 3.23064 | 36017 ft | 493 kts | 150° |
| 2026-04-21 20:33 | 46.29660 | 3.25770 | 36236 ft | 492 kts | 150° |
| 2026-04-21 20:33 | 46.26790 | 3.28457 | 36502 ft | 490 kts | 150° |
| 2026-04-21 20:34 | 46.23967 | 3.31098 | 36754 ft | 489 kts | 150° |
| 2026-04-21 20:34 | 46.21118 | 3.33761 | 36969 ft | 488 kts | 150° |
| 2026-04-21 20:34 | 46.15378 | 3.39106 | 37046 ft | 494 kts | 150° |
| 2026-04-21 20:35 | 46.09569 | 3.44496 | 37041 ft | 496 kts | 150° |
| 2026-04-21 20:35 | 46.03775 | 3.49881 | 37045 ft | 495 kts | 150° |
| 2026-04-21 20:36 | 45.97986 | 3.55229 | 37040 ft | 495 kts | 150° |
| 2026-04-21 20:36 | 45.92184 | 3.60565 | 37041 ft | 495 kts | 150° |
| 2026-04-21 20:37 | 45.86378 | 3.65866 | 37042 ft | 494 kts | 151° |
| 2026-04-21 20:37 | 45.80558 | 3.71119 | 37049 ft | 494 kts | 151° |
| 2026-04-21 20:38 | 45.74770 | 3.76322 | 37054 ft | 494 kts | 151° |
| 2026-04-21 20:38 | 45.68948 | 3.81552 | 37030 ft | 494 kts | 151° |
| 2026-04-21 20:39 | 45.63128 | 3.86776 | 37041 ft | 494 kts | 151° |
| 2026-04-21 20:39 | 45.57304 | 3.91986 | 37068 ft | 494 kts | 151° |
| 2026-04-21 20:40 | 45.51478 | 3.97200 | 37063 ft | 494 kts | 151° |
| 2026-04-21 20:40 | 45.45655 | 4.02403 | 37054 ft | 494 kts | 152° |
| 2026-04-21 20:41 | 45.39816 | 4.07584 | 37056 ft | 494 kts | 151° |
| 2026-04-21 20:41 | 45.34018 | 4.12860 | 37064 ft | 495 kts | 150° |
| 2026-04-21 20:42 | 45.28257 | 4.18204 | 37043 ft | 494 kts | 150° |
| 2026-04-21 20:42 | 45.22686 | 4.23826 | 37069 ft | 497 kts | 140° |
| 2026-04-21 20:43 | 45.18195 | 4.31296 | 37065 ft | 500 kts | 127° |
| 2026-04-21 20:43 | 45.14110 | 4.39264 | 37057 ft | 499 kts | 128° |
| 2026-04-21 20:44 | 45.09946 | 4.47126 | 37039 ft | 498 kts | 130° |
| 2026-04-21 20:44 | 45.05453 | 4.54591 | 37041 ft | 497 kts | 134° |
| 2026-04-21 20:45 | 45.00820 | 4.61848 | 37053 ft | 497 kts | 134° |
| 2026-04-21 20:45 | 44.96226 | 4.69172 | 37024 ft | 498 kts | 133° |
| 2026-04-21 20:46 | 44.91716 | 4.76529 | 37008 ft | 499 kts | 133° |
| 2026-04-21 20:46 | 44.87180 | 4.83934 | 36994 ft | 499 kts | 132° |
| 2026-04-21 20:47 | 44.82620 | 4.91317 | 36996 ft | 499 kts | 133° |
| 2026-04-21 20:47 | 44.78032 | 4.98682 | 37011 ft | 500 kts | 133° |
| 2026-04-21 20:48 | 44.73432 | 5.06047 | 36989 ft | 502 kts | 133° |
| 2026-04-21 20:48 | 44.68823 | 5.13443 | 36988 ft | 503 kts | 133° |
| 2026-04-21 20:49 | 44.64204 | 5.20831 | 36984 ft | 503 kts | 133° |
| 2026-04-21 20:49 | 44.59561 | 5.28198 | 36982 ft | 503 kts | 136° |
| 2026-04-21 20:50 | 44.55206 | 5.33547 | 36992 ft | 500 kts | 142° |
| 2026-04-21 20:50 | 44.49027 | 5.40877 | 36983 ft | 501 kts | 142° |
| 2026-04-21 20:51 | 44.43690 | 5.47191 | 36972 ft | 502 kts | 142° |
| 2026-04-21 20:51 | 44.39251 | 5.52414 | 36974 ft | 502 kts | 142° |
| 2026-04-21 20:52 | 44.33895 | 5.58695 | 36976 ft | 502 kts | 142° |
| 2026-04-21 20:52 | 44.28569 | 5.65002 | 36978 ft | 502 kts | 142° |
| 2026-04-21 20:53 | 44.23257 | 5.71326 | 36985 ft | 502 kts | 142° |
| 2026-04-21 20:53 | 44.17945 | 5.77637 | 36978 ft | 501 kts | 142° |
| 2026-04-21 20:54 | 44.12617 | 5.83918 | 36972 ft | 501 kts | 142° |
| 2026-04-21 20:54 | 44.07291 | 5.90175 | 36951 ft | 501 kts | 142° |
| 2026-04-21 20:55 | 44.01968 | 5.96416 | 36970 ft | 501 kts | 142° |
| 2026-04-21 20:55 | 43.96648 | 6.02652 | 36979 ft | 500 kts | 143° |
| 2026-04-21 20:56 | 43.91362 | 6.08835 | 36972 ft | 500 kts | 142° |
| 2026-04-21 20:56 | 43.86043 | 6.15032 | 36955 ft | 499 kts | 143° |
| 2026-04-21 20:57 | 43.80714 | 6.21216 | 36969 ft | 499 kts | 142° |
| 2026-04-21 20:57 | 43.75391 | 6.27385 | 36976 ft | 499 kts | 142° |
| 2026-04-21 20:58 | 43.70065 | 6.33551 | 36973 ft | 499 kts | 143° |
| 2026-04-21 20:58 | 43.64740 | 6.39695 | 36958 ft | 499 kts | 143° |
| 2026-04-21 20:59 | 43.59449 | 6.45785 | 36968 ft | 498 kts | 143° |
| 2026-04-21 20:59 | 43.54114 | 6.51896 | 36968 ft | 499 kts | 143° |
| 2026-04-21 21:00 | 43.48763 | 6.58019 | 36965 ft | 500 kts | 143° |
| 2026-04-21 21:00 | 43.43419 | 6.64146 | 36943 ft | 500 kts | 143° |
| 2026-04-21 21:01 | 43.38064 | 6.70265 | 36957 ft | 500 kts | 143° |
| 2026-04-21 21:01 | 43.32704 | 6.76364 | 36965 ft | 500 kts | 143° |
| 2026-04-21 21:02 | 43.27334 | 6.82453 | 36972 ft | 500 kts | 143° |
| 2026-04-21 21:02 | 43.21964 | 6.88527 | 36965 ft | 501 kts | 143° |
| 2026-04-21 21:03 | 43.16588 | 6.94594 | 36968 ft | 501 kts | 143° |
| 2026-04-21 21:03 | 43.11244 | 7.00620 | 36973 ft | 501 kts | 143° |
| 2026-04-21 21:04 | 43.05851 | 7.06677 | 36974 ft | 501 kts | 143° |
| 2026-04-21 21:04 | 43.00460 | 7.12726 | 36955 ft | 501 kts | 143° |
| 2026-04-21 21:05 | 42.95071 | 7.18777 | 36973 ft | 501 kts | 143° |
| 2026-04-21 21:05 | 42.89678 | 7.24796 | 36981 ft | 501 kts | 143° |
| 2026-04-21 21:06 | 42.84277 | 7.30804 | 36656 ft | 500 kts | 143° |
| 2026-04-21 21:06 | 42.81620 | 7.33758 | 36399 ft | 499 kts | 143° |
| 2026-04-21 21:06 | 42.78927 | 7.36744 | 36135 ft | 500 kts | 143° |
| 2026-04-21 21:07 | 42.76225 | 7.39736 | 35863 ft | 500 kts | 144° |
| 2026-04-21 21:07 | 42.73527 | 7.42722 | 35604 ft | 500 kts | 144° |
| 2026-04-21 21:07 | 42.70826 | 7.45709 | 35316 ft | 500 kts | 144° |
| 2026-04-21 21:07 | 42.68113 | 7.48711 | 34286 ft | 508 kts | 144° |
| 2026-04-21 21:08 | 42.65362 | 7.51750 | 33470 ft | 509 kts | 144° |
| 2026-04-21 21:08 | 42.62587 | 7.54806 | 32342 ft | 515 kts | 143° |
| 2026-04-21 21:08 | 42.59813 | 7.57859 | 31591 ft | 512 kts | 143° |
| 2026-04-21 21:08 | 42.57042 | 7.60908 | 30648 ft | 515 kts | 142° |
| 2026-04-21 21:09 | 42.54252 | 7.63979 | 29593 ft | 518 kts | 142° |
| 2026-04-21 21:09 | 42.51450 | 7.67058 | 28482 ft | 520 kts | 142° |
| 2026-04-21 21:09 | 42.48640 | 7.70142 | 27377 ft | 521 kts | 142° |
| 2026-04-21 21:09 | 42.45815 | 7.73236 | 26265 ft | 522 kts | 142° |
| 2026-04-21 21:10 | 42.42990 | 7.76322 | 25149 ft | 522 kts | 142° |
| 2026-04-21 21:10 | 42.40162 | 7.79409 | 24104 ft | 522 kts | 142° |
| 2026-04-21 21:10 | 42.37354 | 7.82476 | 23294 ft | 515 kts | 142° |
| 2026-04-21 21:10 | 42.34584 | 7.85499 | 22425 ft | 509 kts | 142° |
| 2026-04-21 21:11 | 42.31850 | 7.88481 | 21615 ft | 502 kts | 142° |
| 2026-04-21 21:11 | 42.29151 | 7.91422 | 20828 ft | 495 kts | 142° |
| 2026-04-21 21:11 | 42.26485 | 7.94319 | 20054 ft | 489 kts | 142° |
| 2026-04-21 21:11 | 42.23839 | 7.97188 | 19312 ft | 484 kts | 143° |
| 2026-04-21 21:12 | 42.21224 | 8.00014 | 18591 ft | 479 kts | 143° |
| 2026-04-21 21:12 | 42.18634 | 8.02809 | 17838 ft | 474 kts | 143° |
| 2026-04-21 21:12 | 42.16069 | 8.05582 | 17057 ft | 470 kts | 143° |
| 2026-04-21 21:12 | 42.13533 | 8.08322 | 16318 ft | 465 kts | 143° |
| 2026-04-21 21:13 | 42.11019 | 8.11038 | 15590 ft | 461 kts | 143° |
| 2026-04-21 21:13 | 42.08534 | 8.13724 | 14910 ft | 456 kts | 143° |
| 2026-04-21 21:13 | 42.06072 | 8.16378 | 14219 ft | 452 kts | 143° |
| 2026-04-21 21:13 | 42.03627 | 8.19008 | 13502 ft | 448 kts | 143° |
| 2026-04-21 21:14 | 42.01248 | 8.21568 | 13178 ft | 423 kts | 143° |
| 2026-04-21 21:14 | 41.99031 | 8.23953 | 12986 ft | 393 kts | 143° |
| 2026-04-21 21:14 | 41.96972 | 8.26163 | 12855 ft | 365 kts | 143° |
| 2026-04-21 21:14 | 41.95046 | 8.28227 | 12670 ft | 344 kts | 143° |
| 2026-04-21 21:15 | 41.93203 | 8.30197 | 12173 ft | 335 kts | 143° |
| 2026-04-21 21:15 | 41.91417 | 8.32102 | 11593 ft | 330 kts | 143° |
| 2026-04-21 21:15 | 41.89624 | 8.34009 | 10993 ft | 327 kts | 143° |
| 2026-04-21 21:15 | 41.87847 | 8.35900 | 10391 ft | 324 kts | 143° |
| 2026-04-21 21:16 | 41.86096 | 8.37768 | 9993 ft | 317 kts | 143° |
| 2026-04-21 21:16 | 41.84365 | 8.39618 | 9918 ft | 320 kts | 143° |
| 2026-04-21 21:16 | 41.82610 | 8.41492 | 9430 ft | 324 kts | 143° |
| 2026-04-21 21:16 | 41.80879 | 8.43338 | 9052 ft | 313 kts | 143° |
| 2026-04-21 21:17 | 41.79192 | 8.45133 | 8484 ft | 307 kts | 143° |
| 2026-04-21 21:17 | 41.77531 | 8.46900 | 7926 ft | 302 kts | 143° |
| 2026-04-21 21:17 | 41.75896 | 8.48641 | 7335 ft | 298 kts | 143° |
| 2026-04-21 21:17 | 41.74286 | 8.50352 | 6763 ft | 293 kts | 143° |
| 2026-04-21 21:18 | 41.72701 | 8.52034 | 6189 ft | 289 kts | 143° |
| 2026-04-21 21:18 | 41.71197 | 8.53731 | 5570 ft | 285 kts | 135° |
| 2026-04-21 21:18 | 41.70044 | 8.55880 | 5009 ft | 281 kts | 116° |
| 2026-04-21 21:18 | 41.69442 | 8.58318 | 4935 ft | 272 kts | 99° |
| 2026-04-21 21:19 | 41.69354 | 8.60769 | 4850 ft | 258 kts | 83° |
| 2026-04-21 21:19 | 41.69716 | 8.63053 | 4691 ft | 246 kts | 69° |
| 2026-04-21 21:19 | 41.70454 | 8.65072 | 4501 ft | 239 kts | 54° |
| 2026-04-21 21:19 | 41.71506 | 8.66760 | 4239 ft | 235 kts | 40° |
| 2026-04-21 21:20 | 41.72809 | 8.68049 | 3959 ft | 232 kts | 27° |
| 2026-04-21 21:20 | 41.74260 | 8.68981 | 3661 ft | 231 kts | 23° |
| 2026-04-21 21:20 | 41.75722 | 8.69885 | 3372 ft | 231 kts | 23° |
| 2026-04-21 21:20 | 41.77185 | 8.70792 | 3054 ft | 232 kts | 23° |
| 2026-04-21 21:21 | 41.78628 | 8.71685 | 2776 ft | 223 kts | 24° |
| 2026-04-21 21:21 | 41.79987 | 8.72524 | 2598 ft | 208 kts | 24° |
| 2026-04-21 21:21 | 41.81273 | 8.73324 | 2416 ft | 196 kts | 24° |
| 2026-04-21 21:21 | 41.82444 | 8.74076 | 2257 ft | 179 kts | 25° |
| 2026-04-21 21:22 | 41.83535 | 8.74762 | 2071 ft | 166 kts | 22° |
| 2026-04-21 21:22 | 41.84566 | 8.75357 | 1863 ft | 158 kts | 24° |
| 2026-04-21 21:22 | 41.85541 | 8.76001 | 1515 ft | 159 kts | 26° |
| 2026-04-21 21:22 | 41.86548 | 8.76625 | 1167 ft | 158 kts | 25° |
| 2026-04-21 21:23 | 41.87532 | 8.77204 | 939 ft | 152 kts | 25° |
| 2026-04-21 21:23 | 41.88476 | 8.77811 | 664 ft | 150 kts | 25° |
| 2026-04-21 21:23 | 41.89413 | 8.78383 | 465 ft | 147 kts | 26° |
| 2026-04-21 21:23 | 41.90338 | 8.78964 | 263 ft | 147 kts | 25° |
| 2026-04-21 21:24 | 41.91260 | 8.79537 | 54 ft | 145 kts | 27° |
| 2026-04-21 21:24 | 41.92035 | 8.80026 | 20 ft | 63 kts | 25° |
| 2026-04-21 21:24 | 41.92236 | 8.80146 | 20 ft | 17 kts | 4° |
| 2026-04-21 21:24 | 41.92279 | 8.80047 | 21 ft | 12 kts | 275° |
| 2026-04-21 21:25 | 41.92284 | 8.79965 | 24 ft | 5 kts | 275° |
| 2026-04-21 21:25 | 41.92285 | 8.79951 | 25 ft | 1 kts | 275° |
| 2026-04-21 21:25 | 41.92287 | 8.79921 | 28 ft | 7 kts | 275° |
| 2026-04-21 21:25 | 41.92272 | 8.79836 | 31 ft | 11 kts | 214° |
| 2026-04-21 21:26 | 41.92204 | 8.79798 | 26 ft | 10 kts | 204° |
| 2026-04-21 21:26 | 41.92134 | 8.79755 | 28 ft | 14 kts | 205° |
| 2026-04-21 21:26 | 41.92036 | 8.79694 | 27 ft | 14 kts | 204° |
| 2026-04-21 21:26 | 41.91973 | 8.79656 | 30 ft | 9 kts | 204° |
| 2026-04-21 21:27 | 41.91932 | 8.79622 | 29 ft | 4 kts | 251° |
| 2026-04-21 21:27 | 41.91938 | 8.79590 | 28 ft | 2 kts | 316° |
| 2026-04-21 21:27 | 41.91950 | 8.79580 | 30 ft | 2 kts | 335° |
| 2026-04-21 21:27 | 41.91957 | 8.79577 | 29 ft | 0 kts | 341° |